Terminal Aerodrome Forecast
Issued by NWS

Home | Current Version | Previous Version | Text Only | Print | Product List | Glossary On
Versions: 1 2 3 4 5 6 7 8 9 10 11 12 13 14 15 16 17 18 19 20 21 22 23 24 25 26 27 28 29 30 31
000
FTUS43 KGLD 210520
TAFMCK
TAF
KMCK 210520Z 2106/2206 18007KT P6SM SKC
     FM211500 17015KT P6SM BKN020
     FM211900 18015KT P6SM SCT025
     FM220000 16008KT P6SM SKC=

USA.gov is the U.S. government's official web portal to all federal, state and local government web resources and services.